createdAt,value
2023-07-09T00:02:28.695Z,94802.66
2023-07-09T00:04:57.118Z,94796.03
2023-07-09T00:07:30.880Z,94796.28
2023-07-09T00:10:00.613Z,94788.72
2023-07-09T00:12:30.178Z,94798.81
2023-07-09T00:15:00.098Z,94796.00
2023-07-09T00:17:32.849Z,94806.09
2023-07-09T00:20:01.758Z,94804.59
2023-07-09T00:22:30.358Z,94794.28
2023-07-09T00:24:58.836Z,94792.97
2023-07-09T00:27:32.238Z,94805.16
2023-07-09T00:30:04.852Z,94808.66
2023-07-09T00:32:34.450Z,94802.09
2023-07-09T00:35:06.263Z,94793.16
2023-07-09T00:37:34.777Z,94795.56
2023-07-09T00:40:04.068Z,94788.22
2023-07-09T00:42:32.612Z,94798.78
2023-07-09T00:45:02.487Z,94784.75
2023-07-09T00:47:50.965Z,94789.81
2023-07-09T00:50:38.138Z,94778.22
2023-07-09T00:53:19.370Z,94781.38
2023-07-09T00:55:57.615Z,94774.81
2023-07-09T00:58:29.149Z,94776.13
2023-07-09T01:01:06.878Z,94774.81
2023-07-09T01:03:41.958Z,94775.34
2023-07-09T01:06:13.414Z,94774.25
2023-07-09T01:08:43.760Z,94775.34
2023-07-09T01:11:22.234Z,94784.63
2023-07-09T01:13:53.341Z,94769.56
2023-07-09T01:16:26.534Z,94764.00
2023-07-09T01:18:55.749Z,94763.75
2023-07-09T01:21:26.140Z,94760.03
2023-07-09T01:23:55.897Z,94766.91
2023-07-09T01:26:28.577Z,94755.28
2023-07-09T01:28:58.436Z,94759.00
2023-07-09T01:31:27.010Z,94759.75
2023-07-09T01:33:55.482Z,94758.94
2023-07-09T01:36:25.976Z,94762.38
2023-07-09T01:38:55.667Z,94767.94
2023-07-09T01:41:24.539Z,94765.06
2023-07-09T01:43:53.938Z,94765.59
2023-07-09T01:46:22.822Z,94770.59
2023-07-09T01:48:54.125Z,94769.56
2023-07-09T01:51:23.916Z,94772.47
2023-07-09T01:53:55.013Z,94771.16
2023-07-09T01:56:25.612Z,94771.41
2023-07-09T01:58:54.169Z,94772.47
2023-07-09T02:01:22.665Z,94774.34
2023-07-09T02:03:51.262Z,94780.19
2023-07-09T02:06:21.078Z,94779.09
2023-07-09T02:08:49.666Z,94765.94
2023-07-09T02:11:19.502Z,94773.31
2023-07-09T02:13:48.048Z,94769.84
2023-07-09T02:16:16.633Z,94773.00
2023-07-09T02:18:45.108Z,94775.41
2023-07-09T02:21:13.628Z,94772.75
2023-07-09T02:23:42.099Z,94779.09
2023-07-09T02:26:10.783Z,94779.84
2023-07-09T02:28:40.729Z,94781.22
2023-07-09T02:31:09.655Z,94787.56
2023-07-09T02:33:38.137Z,94791.50
2023-07-09T02:36:07.185Z,94790.69
2023-07-09T02:38:35.586Z,94787.00
2023-07-09T02:41:04.120Z,94797.06
2023-07-09T02:43:32.571Z,94796.03
2023-07-09T02:46:02.743Z,94802.88
2023-07-09T02:48:31.758Z,94800.00
2023-07-09T02:51:00.439Z,94813.72
2023-07-09T02:53:30.150Z,94817.44
2023-07-09T02:55:58.728Z,94819.84
2023-07-09T02:58:27.325Z,94818.81
2023-07-09T03:00:55.765Z,94820.66
2023-07-09T03:03:25.787Z,94817.72
2023-07-09T03:05:54.471Z,94823.25
2023-07-09T03:08:22.996Z,94818.25
2023-07-09T03:10:51.535Z,94816.41
2023-07-09T03:13:20.300Z,94821.44
2023-07-09T03:15:57.646Z,94829.34
2023-07-09T03:18:27.596Z,94828.53
2023-07-09T03:20:56.117Z,94831.47
2023-07-09T03:23:24.613Z,94829.31
2023-07-09T03:25:53.794Z,94828.53
2023-07-09T03:28:22.300Z,94836.47
2023-07-09T03:30:51.884Z,94831.19
2023-07-09T03:33:20.432Z,94829.84
2023-07-09T03:35:50.298Z,94834.59
2023-07-09T03:38:18.958Z,94837.50
2023-07-09T03:40:47.533Z,94836.16
2023-07-09T03:43:17.319Z,94832.50
2023-07-09T03:45:47.904Z,94826.09
2023-07-09T03:48:19.137Z,94836.19
2023-07-09T03:50:50.684Z,94835.63
2023-07-09T03:53:19.620Z,94838.53
2023-07-09T03:55:53.713Z,94840.38
2023-07-09T03:58:22.349Z,94840.38
2023-07-09T04:00:50.898Z,94848.50
2023-07-09T04:03:19.949Z,94843.97
2023-07-09T04:05:50.011Z,94837.06
2023-07-09T04:08:18.699Z,94844.91
2023-07-09T04:10:47.192Z,94852.25
2023-07-09T04:13:15.707Z,94854.28
2023-07-09T04:15:44.246Z,94857.94
2023-07-09T04:18:12.714Z,94859.41
2023-07-09T04:20:41.345Z,94859.28
2023-07-09T04:23:12.375Z,94868.94
2023-07-09T04:25:40.907Z,94859.81
2023-07-09T04:28:09.531Z,94858.09
2023-07-09T04:30:38.003Z,94855.56
2023-07-09T04:33:07.820Z,94864.41
2023-07-09T04:35:36.398Z,94850.53
2023-07-09T04:38:04.961Z,94857.41
2023-07-09T04:40:35.113Z,94862.50
2023-07-09T04:43:03.758Z,94857.25
2023-07-09T04:45:32.229Z,94850.22
2023-07-09T04:48:00.804Z,94852.09
2023-07-09T04:50:29.373Z,94853.97
2023-07-09T04:52:57.996Z,94864.28
2023-07-09T04:55:27.885Z,94854.97
2023-07-09T04:57:57.833Z,94860.63
2023-07-09T05:00:26.392Z,94865.13
2023-07-09T05:02:55.399Z,94862.66
2023-07-09T05:05:24.834Z,94865.75
2023-07-09T05:07:53.371Z,94864.59
2023-07-09T05:10:21.785Z,94873.56
2023-07-09T05:12:52.475Z,94872.09
2023-07-09T05:15:24.535Z,94872.66
2023-07-09T05:17:53.510Z,94870.44
2023-07-09T05:20:22.737Z,94876.63
2023-07-09T05:22:51.306Z,94871.94
2023-07-09T05:25:20.108Z,94878.75
2023-07-09T05:27:48.631Z,94876.03
2023-07-09T05:30:17.315Z,94877.88
2023-07-09T05:32:47.661Z,94877.63
2023-07-09T05:35:17.046Z,94872.00
2023-07-09T05:37:45.514Z,94869.91
2023-07-09T05:40:14.363Z,94874.81
2023-07-09T05:42:42.916Z,94873.00
2023-07-09T05:45:13.329Z,94873.09
2023-07-09T05:47:41.834Z,94875.00
2023-07-09T05:50:13.123Z,94873.19
2023-07-09T05:52:41.588Z,94877.75
2023-07-09T05:55:10.576Z,94871.06
2023-07-09T05:57:40.595Z,94870.94
2023-07-09T06:00:13.105Z,94870.50
2023-07-09T06:02:41.970Z,94874.56
2023-07-09T06:05:12.372Z,94871.13
2023-07-09T06:07:41.627Z,94872.09
2023-07-09T06:10:11.748Z,94869.13
2023-07-09T06:12:41.172Z,94863.44
2023-07-09T06:15:12.755Z,94863.63
2023-07-09T06:17:41.373Z,94854.81
2023-07-09T06:20:12.999Z,94852.78
2023-07-09T06:22:41.563Z,94847.91
2023-07-09T06:25:10.932Z,94847.81
2023-07-09T06:27:39.464Z,94854.25
2023-07-09T06:30:10.258Z,94857.34
2023-07-09T06:32:38.824Z,94859.41
2023-07-09T06:35:08.436Z,94857.88
2023-07-09T06:37:38.316Z,94853.31
2023-07-09T06:40:10.158Z,94858.66
2023-07-09T06:42:38.642Z,94857.41
2023-07-09T06:45:08.760Z,94850.81
2023-07-09T06:47:37.281Z,94854.72
2023-07-09T06:50:06.897Z,94850.78
2023-07-09T06:52:35.344Z,94858.97
2023-07-09T06:55:05.835Z,94850.47
2023-07-09T06:57:34.379Z,94849.50
2023-07-09T07:00:03.078Z,94845.53
2023-07-09T07:02:31.681Z,94850.09
2023-07-09T07:05:00.221Z,94847.97
2023-07-09T07:07:28.718Z,94841.47
2023-07-09T07:09:57.237Z,94852.72
2023-07-09T07:12:42.696Z,94843.13
2023-07-09T07:15:12.365Z,94848.41
2023-07-09T07:17:41.081Z,94849.09
2023-07-09T07:20:12.527Z,94839.31
2023-07-09T07:22:41.755Z,94844.88
2023-07-09T07:25:10.961Z,94835.91
2023-07-09T07:27:41.729Z,94838.56
2023-07-09T07:30:11.539Z,94837.75
2023-07-09T07:32:44.612Z,94836.59
2023-07-09T07:35:14.454Z,94823.25
2023-07-09T07:37:43.910Z,94827.34
2023-07-09T07:40:14.055Z,94823.78
2023-07-09T07:42:43.998Z,94818.16
2023-07-09T07:45:12.717Z,94825.75
2023-07-09T07:47:42.210Z,94825.09
2023-07-09T07:50:11.663Z,94829.41
2023-07-09T07:52:40.102Z,94823.97
2023-07-09T07:55:14.574Z,94823.72
2023-07-09T07:57:46.384Z,94823.72
2023-07-09T08:00:16.550Z,94817.06
2023-07-09T08:02:45.274Z,94822.25
2023-07-09T08:05:14.005Z,94814.53
2023-07-09T08:07:42.560Z,94813.69
2023-07-09T08:10:11.507Z,94814.22
2023-07-09T08:12:40.185Z,94815.59
2023-07-09T08:15:11.691Z,94818.00
2023-07-09T08:17:40.999Z,94810.75
2023-07-09T08:20:11.278Z,94817.38
2023-07-09T08:22:41.035Z,94813.34
2023-07-09T08:25:10.687Z,94812.22
2023-07-09T08:27:39.126Z,94803.97
2023-07-09T08:30:11.020Z,94816.38
2023-07-09T08:32:39.646Z,94812.22
2023-07-09T08:37:42.864Z,94801.63
2023-07-09T08:40:17.152Z,94804.91
2023-07-09T08:43:00.731Z,94806.91
2023-07-09T08:45:46.544Z,94804.50
2023-07-09T08:48:26.574Z,94801.00
2023-07-09T08:51:02.202Z,94807.94
2023-07-09T08:53:43.469Z,94796.75
2023-07-09T08:56:12.908Z,94805.59
2023-07-09T08:58:43.045Z,94803.13
2023-07-09T09:01:22.902Z,94791.91
2023-07-09T09:03:55.079Z,94804.44
2023-07-09T09:06:29.070Z,94797.59
2023-07-09T09:09:14.070Z,94798.13
2023-07-09T09:11:49.409Z,94803.88
2023-07-09T09:14:29.964Z,94795.19
2023-07-09T09:17:00.410Z,94802.50
2023-07-09T09:19:39.059Z,94799.38
2023-07-09T09:22:14.894Z,94799.25
2023-07-09T09:24:59.204Z,94798.53
2023-07-09T09:27:27.854Z,94798.84
2023-07-09T09:29:56.351Z,94804.75
2023-07-09T09:32:29.162Z,94797.28
2023-07-09T09:34:58.692Z,94792.75
2023-07-09T09:37:31.242Z,94795.09
2023-07-09T09:40:16.849Z,94802.34
2023-07-09T09:42:47.184Z,94786.75
2023-07-09T09:45:20.438Z,94793.41
2023-07-09T09:47:51.367Z,94779.22
2023-07-09T09:50:24.072Z,94781.06
2023-07-09T09:52:52.715Z,94782.03
2023-07-09T09:55:30.488Z,94778.72
2023-07-09T09:57:59.202Z,94773.25
2023-07-09T10:00:34.603Z,94770.56
2023-07-09T10:03:07.932Z,94778.28
2023-07-09T10:05:46.620Z,94778.31
2023-07-09T10:08:28.327Z,94771.47
2023-07-09T10:11:09.603Z,94767.16
2023-07-09T10:13:44.616Z,94772.56
2023-07-09T10:16:24.063Z,94768.97
2023-07-09T10:19:04.877Z,94763.19
2023-07-09T10:21:42.341Z,94765.56
2023-07-09T10:24:35.559Z,94766.56
2023-07-09T10:27:18.274Z,94767.63
2023-07-09T10:30:21.533Z,94759.28
2023-07-09T10:33:09.591Z,94757.28
2023-07-09T10:35:49.130Z,94751.19
2023-07-09T10:38:35.674Z,94757.50
2023-07-09T10:43:54.548Z,94747.72
2023-07-09T10:46:28.147Z,94748.94
2023-07-09T10:49:00.807Z,94753.03
2023-07-09T10:51:39.230Z,94748.94
2023-07-09T10:54:18.286Z,94753.88
2023-07-09T10:56:53.704Z,94749.72
2023-07-09T10:59:29.154Z,94740.25
2023-07-09T11:02:09.813Z,94732.22
2023-07-09T11:04:45.672Z,94739.38
2023-07-09T11:07:34.564Z,94730.56
2023-07-09T11:10:09.505Z,94738.00
2023-07-09T11:12:45.104Z,94738.06
2023-07-09T11:15:19.392Z,94737.47
2023-07-09T11:17:50.925Z,94738.41
2023-07-09T11:20:26.974Z,94735.81
2023-07-09T11:23:05.157Z,94739.09
2023-07-09T11:25:45.402Z,94736.75
2023-07-09T11:28:15.300Z,94735.88
2023-07-09T11:30:54.573Z,94732.88
2023-07-09T11:33:30.103Z,94730.66
2023-07-09T11:36:12.019Z,94724.78
2023-07-09T11:38:48.910Z,94727.75
2023-07-09T11:41:40.672Z,94716.81
2023-07-09T11:44:20.193Z,94718.19
2023-07-09T11:47:15.996Z,94721.34
2023-07-09T11:49:54.375Z,94722.03
2023-07-09T11:52:30.911Z,94722.13
2023-07-09T11:55:13.235Z,94729.38
2023-07-09T11:57:41.936Z,94720.94
2023-07-09T12:00:12.541Z,94722.47
2023-07-09T12:02:41.300Z,94713.47
2023-07-09T12:05:11.648Z,94715.06
2023-07-09T12:07:40.417Z,94722.06
2023-07-09T12:10:23.428Z,94718.84
2023-07-09T12:12:57.429Z,94718.84
2023-07-09T12:15:29.538Z,94716.28
2023-07-09T12:18:00.365Z,94717.19
2023-07-09T12:20:33.408Z,94711.53
2023-07-09T12:23:02.027Z,94713.78
2023-07-09T12:25:33.522Z,94705.16
2023-07-09T12:28:02.270Z,94704.63
2023-07-09T12:30:35.668Z,94705.13
2023-07-09T12:33:10.373Z,94707.41
2023-07-09T12:35:39.115Z,94709.75
2023-07-09T12:38:21.112Z,94698.66
2023-07-09T12:40:52.736Z,94699.38
2023-07-09T12:43:27.790Z,94704.69
2023-07-09T12:45:56.907Z,94700.00
2023-07-09T12:48:28.635Z,94689.09
2023-07-09T12:51:00.269Z,94698.44
2023-07-09T12:53:31.247Z,94686.78
2023-07-09T12:56:03.270Z,94684.66
2023-07-09T12:58:34.606Z,94689.66
2023-07-09T13:01:08.711Z,94688.69
2023-07-09T13:03:38.212Z,94685.09
2023-07-09T13:06:28.452Z,94684.19
2023-07-09T13:09:00.504Z,94695.19
2023-07-09T13:11:38.638Z,94691.31
2023-07-09T13:14:19.852Z,94683.41
2023-07-09T13:16:49.529Z,94698.72
2023-07-09T13:19:18.464Z,94698.34
2023-07-09T13:21:47.980Z,94693.22
2023-07-09T13:24:23.054Z,94700.06
2023-07-09T13:26:53.467Z,94701.75
2023-07-09T13:29:22.985Z,94696.34
2023-07-09T13:31:52.184Z,94700.97
2023-07-09T13:34:24.666Z,94698.56
2023-07-09T13:36:57.151Z,94696.09
2023-07-09T13:39:28.758Z,94695.34
2023-07-09T13:41:59.204Z,94691.84
2023-07-09T13:44:31.827Z,94685.81
2023-07-09T13:47:00.552Z,94687.19
2023-07-09T13:49:29.902Z,94686.75
2023-07-09T13:52:02.577Z,94688.91
2023-07-09T13:54:37.081Z,94699.31
2023-07-09T13:57:13.282Z,94691.97
2023-07-09T13:59:42.416Z,94701.75
2023-07-09T14:02:25.101Z,94697.31
2023-07-09T14:04:54.745Z,94707.03
2023-07-09T14:07:30.957Z,94704.72
2023-07-09T14:10:00.188Z,94704.72
2023-07-09T14:12:32.056Z,94700.75
2023-07-09T14:15:03.674Z,94700.16
2023-07-09T14:17:32.236Z,94703.44
2023-07-09T14:20:01.430Z,94706.75
2023-07-09T14:22:36.987Z,94705.97
2023-07-09T14:25:08.044Z,94710.94
2023-07-09T14:27:37.924Z,94708.59
2023-07-09T14:30:08.622Z,94698.88
2023-07-09T14:32:40.250Z,94711.53
2023-07-09T14:35:17.057Z,94706.00
2023-07-09T14:37:48.442Z,94704.25
2023-07-09T14:40:19.051Z,94707.47
2023-07-09T14:42:50.760Z,94710.59
2023-07-09T14:45:24.690Z,94700.25
2023-07-09T14:47:54.954Z,94698.53
2023-07-09T14:50:25.521Z,94708.16
2023-07-09T14:52:54.094Z,94699.56
2023-07-09T14:55:25.764Z,94701.28
2023-07-09T14:57:55.651Z,94694.09
2023-07-09T15:00:25.517Z,94698.34
2023-07-09T15:02:56.464Z,94702.69
2023-07-09T15:05:29.080Z,94704.19
2023-07-09T15:07:58.453Z,94701.56
2023-07-09T15:10:29.081Z,94700.75
2023-07-09T15:12:59.222Z,94698.59
2023-07-09T15:15:31.090Z,94693.41
2023-07-09T15:18:03.165Z,94695.84
2023-07-09T15:20:33.052Z,94693.28
2023-07-09T15:23:02.546Z,94694.81
2023-07-09T15:25:33.068Z,94698.53
2023-07-09T15:28:03.256Z,94707.31
2023-07-09T15:30:33.133Z,94700.84
2023-07-09T15:33:09.107Z,94706.78
2023-07-09T15:35:39.591Z,94710.59
2023-07-09T15:38:27.314Z,94714.66
2023-07-09T15:40:56.036Z,94701.50
2023-07-09T15:43:27.183Z,94710.34
2023-07-09T15:45:59.714Z,94717.06
2023-07-09T15:48:33.969Z,94714.78
2023-07-09T15:51:04.079Z,94716.25
2023-07-09T15:53:34.334Z,94722.75
2023-07-09T15:56:06.392Z,94723.63
2023-07-09T15:58:42.456Z,94721.25
2023-07-09T16:01:13.531Z,94720.25
2023-07-09T16:03:51.826Z,94724.59
2023-07-09T16:06:21.599Z,94717.06
2023-07-09T16:08:51.008Z,94729.75
2023-07-09T16:11:23.344Z,94716.72
2023-07-09T16:13:55.620Z,94713.41
2023-07-09T16:16:27.577Z,94724.06
2023-07-09T16:18:56.143Z,94716.97
2023-07-09T16:21:28.946Z,94715.13
2023-07-09T16:24:01.481Z,94719.81
2023-07-09T16:26:30.511Z,94724.56
2023-07-09T16:29:00.429Z,94726.63
2023-07-09T16:31:29.085Z,94723.69
2023-07-09T16:33:57.635Z,94725.84
2023-07-09T16:36:26.155Z,94720.47
2023-07-09T16:38:55.467Z,94733.38
2023-07-09T16:41:23.967Z,94735.47
2023-07-09T16:43:52.450Z,94735.03
2023-07-09T16:46:26.309Z,94734.69
2023-07-09T16:48:56.299Z,94737.50
2023-07-09T16:51:25.003Z,94740.53
2023-07-09T16:53:53.582Z,94743.44
2023-07-09T16:56:24.244Z,94739.53
2023-07-09T16:58:52.833Z,94746.09
2023-07-09T17:01:21.475Z,94741.75
2023-07-09T17:03:52.535Z,94738.59
2023-07-09T17:06:21.082Z,94744.00
2023-07-09T17:08:49.594Z,94749.91
2023-07-09T17:11:18.355Z,94751.63
2023-07-09T17:13:48.257Z,94745.91
2023-07-09T17:16:16.813Z,94754.59
2023-07-09T17:18:45.287Z,94742.84
2023-07-09T17:21:15.211Z,94746.84
2023-07-09T17:23:43.675Z,94754.88
2023-07-09T17:26:12.544Z,94752.66
2023-07-09T17:28:41.080Z,94745.59
2023-07-09T17:31:09.739Z,94754.97
2023-07-09T17:33:38.282Z,94753.53
2023-07-09T17:36:15.973Z,94752.34
2023-07-09T17:38:44.632Z,94760.31
2023-07-09T17:41:13.198Z,94753.31
2023-07-09T17:43:43.350Z,94759.25
2023-07-09T17:46:14.460Z,94762.47
2023-07-09T17:48:44.206Z,94772.00
2023-07-09T17:51:13.071Z,94768.25
2023-07-09T17:53:42.934Z,94772.72
2023-07-09T17:56:22.718Z,94765.50
2023-07-09T17:58:51.537Z,94772.47
2023-07-09T18:01:20.106Z,94770.47
2023-07-09T18:03:48.724Z,94771.28
2023-07-09T18:06:23.336Z,94775.53
2023-07-09T18:08:53.224Z,94774.59
2023-07-09T18:11:30.979Z,94795.72
2023-07-09T18:14:01.502Z,94786.13
2023-07-09T18:16:30.569Z,94781.88
2023-07-09T18:19:03.567Z,94790.06
2023-07-09T18:21:32.281Z,94785.19
2023-07-09T18:24:05.534Z,94799.03
2023-07-09T18:26:34.094Z,94800.47
2023-07-09T18:29:02.933Z,94796.69
2023-07-09T18:31:32.266Z,94805.16
2023-07-09T18:34:00.788Z,94802.63
2023-07-09T18:36:29.317Z,94801.03
2023-07-09T18:38:57.762Z,94808.91
2023-07-09T18:41:34.427Z,94811.59
2023-07-09T18:44:03.375Z,94825.09
2023-07-09T18:46:31.975Z,94826.78
2023-07-09T18:49:00.435Z,94829.28
2023-07-09T18:51:29.019Z,94833.88
2023-07-09T18:53:57.557Z,94840.59
2023-07-09T18:56:27.460Z,94835.53
2023-07-09T18:58:55.997Z,94838.19
2023-07-09T19:01:24.702Z,94836.75
2023-07-09T19:03:53.969Z,94841.16
2023-07-09T19:06:22.504Z,94847.22
2023-07-09T19:08:51.094Z,94841.06
2023-07-09T19:11:19.586Z,94853.91
2023-07-09T19:13:49.755Z,94847.72
2023-07-09T19:16:29.669Z,94854.00
2023-07-09T19:18:59.147Z,94852.84
2023-07-09T19:21:31.389Z,94851.28
2023-07-09T19:24:00.562Z,94861.09
2023-07-09T19:26:29.231Z,94860.88
2023-07-09T19:28:59.161Z,94857.72
2023-07-09T19:31:27.839Z,94861.00
2023-07-09T19:33:56.786Z,94852.38
2023-07-09T19:36:28.314Z,94859.41
2023-07-09T19:38:57.631Z,94863.41
2023-07-09T19:41:27.813Z,94863.81
2023-07-09T19:43:56.403Z,94864.41
2023-07-09T19:46:28.094Z,94862.03
2023-07-09T19:48:57.726Z,94863.84
2023-07-09T19:51:26.180Z,94867.63
2023-07-09T19:53:54.635Z,94855.97
2023-07-09T19:56:23.170Z,94866.84
2023-07-09T19:58:53.247Z,94868.59
2023-07-09T20:01:22.572Z,94870.00
2023-07-09T20:03:52.548Z,94873.81
2023-07-09T20:06:21.046Z,94862.78
2023-07-09T20:08:49.607Z,94861.81
2023-07-09T20:11:18.544Z,94861.94
2023-07-09T20:13:47.184Z,94854.53
2023-07-09T20:16:27.124Z,94865.88
2023-07-09T20:18:58.092Z,94861.47
2023-07-09T20:21:29.024Z,94864.88
2023-07-09T20:23:58.400Z,94864.69
2023-07-09T20:26:26.946Z,94877.09
2023-07-09T20:28:55.474Z,94862.41
2023-07-09T20:31:27.189Z,94874.53
2023-07-09T20:34:15.615Z,94881.59
2023-07-09T20:36:44.715Z,94878.97
2023-07-09T20:39:17.606Z,94869.69
2023-07-09T20:41:48.764Z,94874.97
2023-07-09T20:44:20.584Z,94878.25
2023-07-09T20:46:49.626Z,94874.66
2023-07-09T20:49:28.341Z,94882.47
2023-07-09T20:51:57.627Z,94880.91
2023-07-09T20:54:26.079Z,94888.81
2023-07-09T20:56:58.828Z,94878.63
2023-07-09T20:59:29.411Z,94876.16
2023-07-09T21:01:58.094Z,94883.09
2023-07-09T21:04:28.015Z,94878.06
2023-07-09T21:06:56.557Z,94877.84
2023-07-09T21:09:31.376Z,94884.69
2023-07-09T21:12:00.580Z,94889.72
2023-07-09T21:14:29.115Z,94898.50
2023-07-09T21:16:59.245Z,94894.41
2023-07-09T21:19:38.128Z,94893.41
2023-07-09T21:22:15.928Z,94892.59
2023-07-09T21:24:46.293Z,94892.66
2023-07-09T21:27:14.869Z,94886.59
2023-07-09T21:29:43.464Z,94893.41
2023-07-09T21:32:21.660Z,94888.72
2023-07-09T21:34:52.072Z,94887.59
2023-07-09T21:37:23.053Z,94900.94
2023-07-09T21:39:52.244Z,94895.13
2023-07-09T21:42:20.911Z,94885.34
2023-07-09T21:44:49.398Z,94893.66
2023-07-09T21:47:20.110Z,94884.41
2023-07-09T21:49:48.896Z,94883.72
2023-07-09T21:52:24.763Z,94881.22
2023-07-09T21:57:25.921Z,94881.34
2023-07-09T21:59:54.499Z,94884.75
2023-07-09T22:02:28.395Z,94887.44
2023-07-09T22:04:57.148Z,94881.75
2023-07-09T22:07:27.177Z,94883.56
2023-07-09T22:09:57.444Z,94882.94
2023-07-09T22:12:26.652Z,94885.41
2023-07-09T22:15:00.021Z,94880.88
2023-07-09T22:17:28.553Z,94883.50
2023-07-09T22:19:58.179Z,94886.75
2023-07-09T22:22:30.198Z,94882.97
2023-07-09T22:24:59.609Z,94887.03
2023-07-09T22:27:29.250Z,94884.72
2023-07-09T22:29:57.970Z,94889.78
2023-07-09T22:32:31.306Z,94888.53
2023-07-09T22:35:03.678Z,94889.63
2023-07-09T22:37:34.947Z,94888.06
2023-07-09T22:40:17.031Z,94890.25
2023-07-09T22:42:45.877Z,94893.66
2023-07-09T22:45:14.795Z,94885.19
2023-07-09T22:47:44.438Z,94897.09
2023-07-09T22:50:19.445Z,94888.00
2023-07-09T22:52:49.309Z,94889.53
2023-07-09T22:55:32.683Z,94881.50
2023-07-09T22:58:04.304Z,94879.94
2023-07-09T23:00:38.852Z,94882.59
2023-07-09T23:03:16.893Z,94881.50
2023-07-09T23:05:47.181Z,94873.78
2023-07-09T23:08:25.177Z,94867.69
2023-07-09T23:10:57.231Z,94869.31
2023-07-09T23:13:31.359Z,94868.69
2023-07-09T23:16:01.542Z,94872.91
2023-07-09T23:18:31.637Z,94862.31
2023-07-09T23:21:00.347Z,94865.88
2023-07-09T23:23:30.253Z,94869.94
2023-07-09T23:25:59.793Z,94865.94
2023-07-09T23:28:28.897Z,94867.06
2023-07-09T23:31:01.569Z,94869.16
2023-07-09T23:33:33.923Z,94870.00
2023-07-09T23:36:04.427Z,94873.44
2023-07-09T23:38:34.889Z,94873.44
2023-07-09T23:41:07.736Z,94863.19
2023-07-09T23:43:42.617Z,94866.56
2023-07-09T23:46:13.742Z,94870.91
2023-07-09T23:48:48.919Z,94878.19
2023-07-09T23:51:20.048Z,94886.47
2023-07-09T23:53:50.072Z,94882.47
2023-07-09T23:56:24.305Z,94866.63
2023-07-09T23:58:53.147Z,94866.94
